Terminal Aerodrome Forecast
Issued by NWS St Louis, MO

Home | Current Version | Previous Version | Text Only | Print | Product List | Glossary On
Versions: 1 2 3 4 5 6 7 8 9 10 11 12 13 14 15 16 17 18 19 20 21 22 23 24 25 26 27 28 29 30
775
FTUS43 KLSX 241726
TAFCOU
TAF
KCOU 241726Z 2418/2518 20015G26KT P6SM BKN150
     FM242000 18012KT P6SM VCTS BKN050CB
     FM250000 16010KT 5SM -TSRA OVC045CB
     FM250300 14009KT 3SM -TSRA OVC020CB
     FM250600 14007KT P6SM VCSH OVC025
     FM251100 15004KT P6SM BKN060
     FM251600 16008KT P6SM VCTS BKN050CB=

USA.gov is the U.S. government's official web portal to all federal, state and local government web resources and services.